createdAt,value
2018-01-02T00:00:29.536Z,100018.47
2018-01-02T00:02:58.620Z,100015.97
2018-01-02T00:05:28.398Z,100016.80
2018-01-02T00:07:58.359Z,100011.34
2018-01-02T00:10:27.349Z,100005.00
2018-01-02T00:12:57.194Z,100023.14
2018-01-02T00:15:26.153Z,100016.40
2018-01-02T00:17:56.474Z,100010.50
2018-01-02T00:20:25.421Z,100010.89
2018-01-02T00:22:54.592Z,100007.97
2018-01-02T00:25:23.566Z,99996.97
2018-01-02T00:27:52.874Z,99989.81
2018-01-02T00:30:22.318Z,99994.03
2018-01-02T00:32:52.262Z,100004.99
2018-01-02T00:35:21.285Z,100006.67
2018-01-02T00:37:50.594Z,99991.08
2018-01-02T00:40:19.731Z,99991.50
2018-01-02T00:42:50.927Z,99986.03
2018-01-02T00:45:20.016Z,99986.02
2018-01-02T00:47:49.734Z,99980.11
2018-01-02T00:50:20.567Z,99980.95
2018-01-02T00:52:49.655Z,99978.42
2018-01-02T00:55:18.635Z,99978.03
2018-01-02T01:00:23.781Z,99970.00
2018-01-02T01:02:53.684Z,99965.34
2018-01-02T01:05:25.660Z,99965.78
2018-01-02T01:07:54.884Z,99961.12
2018-01-02T01:10:23.849Z,99965.34
2018-01-02T01:12:52.819Z,99958.17
2018-01-02T01:15:22.535Z,99956.06
2018-01-02T01:17:51.624Z,99955.20
2018-01-02T01:20:20.506Z,99957.31
2018-01-02T01:22:49.568Z,99949.68
2018-01-02T01:25:18.466Z,99948.83
2018-01-02T01:27:49.196Z,99945.02
2018-01-02T01:30:18.292Z,99941.22
2018-01-02T01:32:47.141Z,99940.80
2018-01-02T01:35:16.121Z,99930.28
2018-01-02T01:37:45.330Z,99919.73
2018-01-02T01:40:15.194Z,99918.91
2018-01-02T01:42:44.141Z,99905.84
2018-01-02T01:45:13.380Z,99902.49
2018-01-02T01:47:42.474Z,99893.61
2018-01-02T01:50:13.999Z,99893.20
2018-01-02T01:52:43.031Z,99882.22
2018-01-02T01:55:12.044Z,99876.31
2018-01-02T01:57:41.098Z,99890.23
2018-01-02T02:00:11.563Z,99898.23
2018-01-02T02:02:40.938Z,99894.84
2018-01-02T02:05:10.978Z,99889.76
2018-01-02T02:07:39.949Z,99887.19
2018-01-02T02:10:09.087Z,99885.50
2018-01-02T02:12:39.856Z,99896.47
2018-01-02T02:15:08.821Z,99898.55
2018-01-02T02:17:37.822Z,99898.92
2018-01-02T02:20:09.913Z,99880.77
2018-01-02T02:22:39.848Z,99881.17
2018-01-02T02:25:08.847Z,99887.52
2018-01-02T02:27:41.415Z,99883.72
2018-01-02T02:30:10.625Z,99878.66
2018-01-02T02:32:39.630Z,99867.69
2018-01-02T02:35:08.756Z,99860.06
2018-01-02T02:37:37.731Z,99863.05
2018-01-02T02:40:07.821Z,99858.44
2018-01-02T02:42:37.700Z,99859.72
2018-01-02T02:45:06.740Z,99863.95
2018-01-02T02:47:35.851Z,99862.25
2018-01-02T02:50:05.725Z,99860.19
2018-01-02T02:52:35.450Z,99861.02
2018-01-02T02:55:04.345Z,99870.70
2018-01-02T02:57:35.057Z,99867.34
2018-01-02T03:00:05.152Z,99866.89
2018-01-02T03:02:35.217Z,99856.34
2018-01-02T03:05:04.317Z,99858.00
2018-01-02T03:07:34.057Z,99865.98
2018-01-02T03:10:04.746Z,99864.75
2018-01-02T03:12:35.392Z,99856.26
2018-01-02T03:15:04.421Z,99857.13
2018-01-02T03:17:33.387Z,99860.06
2018-01-02T03:20:04.222Z,99852.41
2018-01-02T03:22:33.309Z,99855.77
2018-01-02T03:25:02.305Z,99853.73
2018-01-02T03:27:31.300Z,99850.33
2018-01-02T03:30:00.253Z,99842.67
2018-01-02T03:32:30.959Z,99841.39
2018-01-02T03:35:01.009Z,99840.55
2018-01-02T03:37:30.914Z,99837.61
2018-01-02T03:40:00.414Z,99845.20
2018-01-02T03:42:30.344Z,99844.80
2018-01-02T03:44:59.334Z,99837.58
2018-01-02T03:47:28.533Z,99835.92
2018-01-02T03:49:57.733Z,99836.35
2018-01-02T03:52:26.722Z,99837.69
2018-01-02T03:54:56.524Z,99826.69
2018-01-02T03:57:27.124Z,99830.10
2018-01-02T03:59:57.713Z,99828.88
2018-01-02T04:02:26.657Z,99829.70
2018-01-02T04:04:56.638Z,99830.96
2018-01-02T04:07:25.602Z,99841.95
2018-01-02T04:09:54.591Z,99828.91
2018-01-02T04:12:24.549Z,99831.88
2018-01-02T04:14:53.526Z,99826.41
2018-01-02T04:17:22.595Z,99826.42
2018-01-02T04:19:51.485Z,99817.16
2018-01-02T04:22:20.381Z,99812.56
2018-01-02T04:24:49.375Z,99812.14
2018-01-02T04:27:20.256Z,99818.05
2018-01-02T04:29:49.304Z,99813.81
2018-01-02T04:32:19.100Z,99813.38
2018-01-02T04:34:49.854Z,99811.27
2018-01-02T04:37:19.060Z,99804.50
2018-01-02T04:39:48.051Z,99812.91
2018-01-02T04:42:17.893Z,99817.98
2018-01-02T04:44:46.958Z,99816.39
2018-01-02T04:47:15.952Z,99813.06
2018-01-02T04:49:45.049Z,99816.83
2018-01-02T04:52:14.047Z,99811.01
2018-01-02T04:54:43.132Z,99808.46
2018-01-02T04:57:13.047Z,99808.84
2018-01-02T04:59:43.781Z,99806.28
2018-01-02T05:02:12.777Z,99803.75
2018-01-02T05:04:42.947Z,99799.12
2018-01-02T05:07:11.876Z,99798.69
2018-01-02T05:09:40.825Z,99801.22
2018-01-02T05:12:09.965Z,99805.02
2018-01-02T05:14:39.052Z,99797.83
2018-01-02T05:17:08.785Z,99803.73
2018-01-02T05:19:41.421Z,99802.49
2018-01-02T05:22:10.356Z,99798.72
2018-01-02T05:24:40.681Z,99790.69
2018-01-02T05:27:11.316Z,99793.55
2018-01-02T05:29:40.229Z,99794.83
2018-01-02T05:32:09.123Z,99787.22
2018-01-02T05:34:38.230Z,99780.84
2018-01-02T05:37:07.184Z,99780.02
2018-01-02T05:39:36.189Z,99778.71
2018-01-02T05:42:05.277Z,99781.63
2018-01-02T05:44:35.069Z,99785.47
2018-01-02T05:47:03.978Z,99781.66
2018-01-02T05:49:34.713Z,99776.58
2018-01-02T05:52:03.707Z,99769.81
2018-01-02T05:54:32.942Z,99775.78
2018-01-02T05:59:36.526Z,99774.90
2018-01-02T06:02:05.412Z,99774.41
2018-01-02T06:04:37.072Z,99783.62
2018-01-02T06:07:06.260Z,99775.60
2018-01-02T06:09:36.262Z,99767.13
2018-01-02T06:12:05.104Z,99774.65
2018-01-02T06:14:33.996Z,99763.64
2018-01-02T06:17:02.825Z,99756.91
2018-01-02T06:19:32.796Z,99760.69
2018-01-02T06:22:01.617Z,99759.38
2018-01-02T06:24:30.721Z,99755.08
2018-01-02T06:27:01.561Z,99752.08
2018-01-02T06:29:30.545Z,99743.94
2018-01-02T06:31:59.550Z,99743.05
2018-01-02T06:34:30.197Z,99732.84
2018-01-02T06:37:00.951Z,99729.53
2018-01-02T06:39:30.049Z,99727.81
2018-01-02T06:42:00.036Z,99726.53
2018-01-02T06:44:29.885Z,99736.21
2018-01-02T06:46:58.973Z,99740.35
2018-01-02T06:49:28.953Z,99742.41
2018-01-02T06:51:58.779Z,99738.95
2018-01-02T06:54:27.824Z,99745.66
2018-01-02T06:56:59.849Z,99734.73
2018-01-02T06:59:28.947Z,99733.80
2018-01-02T07:01:58.804Z,99739.28
2018-01-02T07:04:28.012Z,99743.47
2018-01-02T07:06:57.147Z,99736.14
2018-01-02T07:09:26.096Z,99740.75
2018-01-02T07:14:29.577Z,99745.30
2018-01-02T07:16:58.615Z,99740.10
2018-01-02T07:19:27.786Z,99727.23
2018-01-02T07:21:56.799Z,99721.23
2018-01-02T07:24:26.743Z,99721.34
2018-01-02T07:26:56.577Z,99723.19
2018-01-02T07:29:26.563Z,99713.73
2018-01-02T07:31:55.655Z,99705.72
2018-01-02T07:34:24.624Z,99703.80
2018-01-02T07:36:53.464Z,99717.38
2018-01-02T07:39:22.316Z,99698.65
2018-01-02T07:41:52.147Z,99696.83
2018-01-02T07:44:21.672Z,99705.64
2018-01-02T07:46:51.259Z,99703.87
2018-01-02T07:51:54.711Z,99699.98
2018-01-02T07:54:24.676Z,99701.27
2018-01-02T07:56:55.690Z,99703.27
2018-01-02T07:59:24.774Z,99706.94
2018-01-02T08:01:53.870Z,99699.55
2018-01-02T08:07:01.088Z,99693.59
2018-01-02T08:09:30.265Z,99696.63
2018-01-02T08:11:59.480Z,99699.23
2018-01-02T08:14:30.182Z,99702.06
2018-01-02T08:17:01.201Z,99702.63
2018-01-02T08:19:30.698Z,99694.88
2018-01-02T08:22:02.769Z,99688.55
2018-01-02T08:24:32.443Z,99685.64
2018-01-02T08:27:01.568Z,99677.97
2018-01-02T08:29:31.388Z,99680.59
2018-01-02T08:32:00.651Z,99683.41
2018-01-02T08:34:29.676Z,99686.42
2018-01-02T08:36:58.595Z,99675.97
2018-01-02T08:39:27.807Z,99675.69
2018-01-02T08:41:56.803Z,99671.62
2018-01-02T08:44:27.513Z,99670.95
2018-01-02T08:46:56.485Z,99650.09
2018-01-02T08:49:25.486Z,99645.72
2018-01-02T08:54:30.270Z,99646.30
2018-01-02T08:57:00.447Z,99652.03
2018-01-02T08:59:30.361Z,99649.59
2018-01-02T09:01:59.285Z,99637.82
2018-01-02T09:04:29.261Z,99636.34
2018-01-02T09:06:59.336Z,99627.17
2018-01-02T09:09:28.283Z,99626.17
2018-01-02T09:11:57.274Z,99624.81
2018-01-02T09:14:28.823Z,99625.83
2018-01-02T09:16:57.784Z,99621.61
2018-01-02T09:19:26.920Z,99619.56
2018-01-02T09:21:58.109Z,99623.56
2018-01-02T09:24:27.974Z,99622.65
2018-01-02T09:26:56.972Z,99620.20
2018-01-02T09:29:28.636Z,99617.78
2018-01-02T09:31:57.824Z,99616.42
2018-01-02T09:34:26.793Z,99610.58
2018-01-02T09:36:55.918Z,99614.78
2018-01-02T09:39:24.872Z,99607.49
2018-01-02T09:41:53.905Z,99595.47
2018-01-02T09:44:23.000Z,99594.80
2018-01-02T09:46:51.891Z,99587.86
2018-01-02T09:49:21.226Z,99587.38
2018-01-02T09:51:51.210Z,99582.25
2018-01-02T09:54:20.103Z,99576.60
2018-01-02T09:56:50.016Z,99574.98
2018-01-02T09:59:20.650Z,99569.23
2018-01-02T10:01:49.743Z,99568.00
2018-01-02T10:04:19.455Z,99551.93
2018-01-02T10:06:52.429Z,99559.36
2018-01-02T10:09:21.334Z,99554.11
2018-01-02T10:11:51.288Z,99555.95
2018-01-02T10:14:21.273Z,99563.58
2018-01-02T10:16:50.160Z,99556.30
2018-01-02T10:19:19.247Z,99557.16
2018-01-02T10:21:48.258Z,99560.05
2018-01-02T10:24:17.168Z,99555.69
2018-01-02T10:26:46.056Z,99547.75
2018-01-02T10:29:15.852Z,99549.91
2018-01-02T10:31:45.768Z,99548.17
2018-01-02T10:34:16.731Z,99548.35
2018-01-02T10:36:45.800Z,99544.41
2018-01-02T10:39:14.791Z,99547.11
2018-01-02T10:41:43.841Z,99547.79
2018-01-02T10:44:12.920Z,99545.94
2018-01-02T10:46:41.870Z,99551.70
2018-01-02T10:49:11.006Z,99545.08
2018-01-02T10:51:40.780Z,99548.67
2018-01-02T10:54:09.700Z,99548.69
2018-01-02T10:56:39.895Z,99545.04
2018-01-02T10:59:10.581Z,99542.06
2018-01-02T11:01:39.564Z,99536.57
2018-01-02T11:04:08.511Z,99546.80
2018-01-02T11:06:38.596Z,99541.92
2018-01-02T11:09:07.449Z,99535.83
2018-01-02T11:11:37.175Z,99523.77
2018-01-02T11:14:06.060Z,99525.58
2018-01-02T11:16:34.894Z,99528.33
2018-01-02T11:19:03.746Z,99521.57
2018-01-02T11:21:33.554Z,99521.30
2018-01-02T11:24:02.385Z,99518.77
2018-01-02T11:26:31.305Z,99522.38
2018-01-02T11:29:00.114Z,99524.17
2018-01-02T11:31:28.922Z,99520.87
2018-01-02T11:33:57.782Z,99522.59
2018-01-02T11:36:26.577Z,99512.40
2018-01-02T11:38:55.427Z,99510.42
2018-01-02T11:41:25.133Z,99511.27
2018-01-02T11:43:54.008Z,99513.08
2018-01-02T11:46:22.845Z,99514.00
2018-01-02T11:48:53.288Z,99513.64
2018-01-02T11:51:22.112Z,99503.17
2018-01-02T11:53:50.976Z,99507.42
2018-01-02T11:56:19.800Z,99508.86
2018-01-02T11:58:48.615Z,99508.42
2018-01-02T12:01:17.435Z,99506.37
2018-01-02T12:03:46.371Z,99508.02
2018-01-02T12:06:15.204Z,99510.63
2018-01-02T12:08:44.074Z,99518.22
2018-01-02T12:11:15.341Z,99511.75
2018-01-02T12:13:44.234Z,99509.55
2018-01-02T12:16:13.038Z,99500.00
2018-01-02T12:18:44.533Z,99490.59
2018-01-02T12:21:13.359Z,99491.42
2018-01-02T12:23:42.229Z,99494.52
2018-01-02T12:26:12.898Z,99495.66
2018-01-02T12:28:41.778Z,99504.54
2018-01-02T12:31:10.678Z,99517.58
2018-01-02T12:33:39.523Z,99522.58
2018-01-02T12:36:08.360Z,99521.27
2018-01-02T12:38:37.189Z,99517.92
2018-01-02T12:43:40.342Z,99514.72
2018-01-02T12:46:09.182Z,99503.25
2018-01-02T12:48:38.048Z,99511.19
2018-01-02T12:51:06.871Z,99506.01
2018-01-02T12:53:35.671Z,99517.80
2018-01-02T12:56:04.548Z,99527.03
2018-01-02T12:58:33.362Z,99523.89
2018-01-02T13:01:02.190Z,99528.34
2018-01-02T13:03:31.025Z,99529.61
2018-01-02T13:05:59.802Z,99524.44
2018-01-02T13:08:28.626Z,99519.74
2018-01-02T13:10:57.570Z,99519.63
2018-01-02T13:13:26.405Z,99521.37
2018-01-02T13:15:55.226Z,99519.25
2018-01-02T13:18:24.926Z,99528.99
2018-01-02T13:20:53.767Z,99533.11
2018-01-02T13:23:22.605Z,99532.27
2018-01-02T13:28:25.610Z,99530.08
2018-01-02T13:30:54.854Z,99530.09
2018-01-02T13:33:23.809Z,99530.95
2018-01-02T13:38:27.594Z,99545.45
2018-01-02T13:40:57.489Z,99537.00
2018-01-02T13:43:28.138Z,99544.92
2018-01-02T13:45:57.011Z,99546.17
2018-01-02T13:48:25.788Z,99544.06
2018-01-02T13:50:56.327Z,99550.42
2018-01-02T13:53:25.176Z,99554.25
2018-01-02T13:55:54.062Z,99548.02
2018-01-02T13:58:24.663Z,99556.84
2018-01-02T14:00:53.513Z,99550.20
2018-01-02T14:03:22.327Z,99556.02
2018-01-02T14:05:52.090Z,99550.84
2018-01-02T14:08:20.896Z,99548.78
2018-01-02T14:10:49.811Z,99557.28
2018-01-02T14:13:18.695Z,99563.17
2018-01-02T14:15:47.581Z,99562.33
2018-01-02T14:18:16.490Z,99566.69
2018-01-02T14:20:45.462Z,99563.80
2018-01-02T14:23:14.429Z,99562.58
2018-01-02T14:25:44.017Z,99568.09
2018-01-02T14:28:13.123Z,99564.63
2018-01-02T14:30:41.956Z,99565.52
2018-01-02T14:33:10.825Z,99566.91
2018-01-02T14:35:39.664Z,99572.02
2018-01-02T14:38:08.466Z,99572.03
2018-01-02T14:40:37.319Z,99565.22
2018-01-02T14:43:06.232Z,99572.48
2018-01-02T14:45:35.129Z,99566.20
2018-01-02T14:48:03.962Z,99576.04
2018-01-02T14:50:32.774Z,99570.31
2018-01-02T14:53:01.853Z,99569.59
2018-01-02T14:55:31.945Z,99576.49
2018-01-02T14:58:00.843Z,99578.31
2018-01-02T15:00:29.740Z,99581.77
2018-01-02T15:02:58.561Z,99581.92
2018-01-02T15:05:27.500Z,99590.45
2018-01-02T15:07:56.393Z,99588.85
2018-01-02T15:10:25.328Z,99592.69
2018-01-02T15:12:54.983Z,99595.32
2018-01-02T15:15:24.262Z,99598.32
2018-01-02T15:17:53.282Z,99609.87
2018-01-02T15:20:22.373Z,99607.05
2018-01-02T15:22:52.428Z,99614.23
2018-01-02T15:25:21.430Z,99612.59
2018-01-02T15:30:25.044Z,99610.84
2018-01-02T15:32:54.584Z,99611.20
2018-01-02T15:37:57.729Z,99606.46
2018-01-02T15:40:26.755Z,99599.23
2018-01-02T15:42:59.642Z,99602.67
2018-01-02T15:45:28.635Z,99599.73
2018-01-02T15:47:58.682Z,99601.81
2018-01-02T15:50:27.787Z,99600.52
2018-01-02T15:52:56.745Z,99599.27
2018-01-02T15:55:25.837Z,99600.93
2018-01-02T15:58:00.212Z,99601.24
2018-01-02T16:00:31.229Z,99603.81
2018-01-02T16:03:00.228Z,99598.41
2018-01-02T16:05:33.076Z,99606.95
2018-01-02T16:08:02.079Z,99609.19
2018-01-02T16:10:30.997Z,99612.66
2018-01-02T16:13:00.811Z,99618.56
2018-01-02T16:15:29.818Z,99615.89
2018-01-02T16:17:58.861Z,99617.86
2018-01-02T16:20:28.381Z,99611.83
2018-01-02T16:22:57.370Z,99615.13
2018-01-02T16:25:33.005Z,99614.18
2018-01-02T16:28:01.939Z,99624.68
2018-01-02T16:30:31.048Z,99629.20
2018-01-02T16:33:00.052Z,99625.91
2018-01-02T16:35:29.034Z,99625.10
2018-01-02T16:37:59.106Z,99630.59
2018-01-02T16:40:30.071Z,99626.38
2018-01-02T16:42:59.091Z,99628.91
2018-01-02T16:45:29.418Z,99635.73
2018-01-02T16:47:58.704Z,99636.20
2018-01-02T16:50:27.661Z,99636.61
2018-01-02T16:52:57.614Z,99631.96
2018-01-02T16:55:27.528Z,99646.02
2018-01-02T16:57:56.568Z,99651.19
2018-01-02T17:00:25.424Z,99653.34
2018-01-02T17:02:55.226Z,99651.66
2018-01-02T17:05:24.085Z,99661.32
2018-01-02T17:07:52.907Z,99660.76
2018-01-02T17:10:24.183Z,99656.01
2018-01-02T17:12:53.031Z,99660.16
2018-01-02T17:15:21.904Z,99659.22
2018-01-02T17:17:50.772Z,99649.77
2018-01-02T17:20:19.657Z,99653.39
2018-01-02T17:22:48.493Z,99654.55
2018-01-02T17:25:17.465Z,99651.08
2018-01-02T17:27:46.289Z,99649.64
2018-01-02T17:30:15.157Z,99652.02
2018-01-02T17:32:44.861Z,99651.55
2018-01-02T17:35:13.741Z,99650.02
2018-01-02T17:37:42.572Z,99653.79
2018-01-02T17:40:11.425Z,99653.23
2018-01-02T17:42:40.347Z,99656.11
2018-01-02T17:45:09.346Z,99655.23
2018-01-02T17:47:38.205Z,99653.98
2018-01-02T17:50:07.059Z,99652.64
2018-01-02T17:52:35.888Z,99650.91
2018-01-02T17:55:05.737Z,99654.20
2018-01-02T17:57:34.599Z,99652.97
2018-01-02T18:00:03.494Z,99649.98
2018-01-02T18:02:32.510Z,99649.11
2018-01-02T18:05:01.394Z,99645.23
2018-01-02T18:07:30.260Z,99647.88
2018-01-02T18:10:00.911Z,99650.18
2018-01-02T18:12:29.875Z,99641.33
2018-01-02T18:14:58.716Z,99650.32
2018-01-02T18:17:29.499Z,99653.42
2018-01-02T18:19:58.317Z,99654.06
2018-01-02T18:22:27.143Z,99654.12
2018-01-02T18:25:00.729Z,99653.77
2018-01-02T18:27:29.591Z,99653.78
2018-01-02T18:29:58.444Z,99646.61
2018-01-02T18:32:29.010Z,99659.28
2018-01-02T18:34:57.838Z,99654.99
2018-01-02T18:37:26.688Z,99654.94
2018-01-02T18:39:56.496Z,99657.51
2018-01-02T18:42:25.379Z,99655.35
2018-01-02T18:44:54.220Z,99659.61
2018-01-02T18:47:23.184Z,99665.50
2018-01-02T18:49:52.016Z,99666.02
2018-01-02T18:52:20.845Z,99673.22
2018-01-02T18:54:49.684Z,99678.38
2018-01-02T18:57:18.524Z,99681.72
2018-01-02T18:59:47.453Z,99684.61
2018-01-02T19:02:17.203Z,99683.73
2018-01-02T19:04:46.044Z,99681.99
2018-01-02T19:07:14.955Z,99678.50
2018-01-02T19:09:44.722Z,99681.44
2018-01-02T19:12:13.539Z,99675.52
2018-01-02T19:14:42.418Z,99680.44
2018-01-02T19:17:11.322Z,99677.95
2018-01-02T19:19:40.242Z,99674.64
2018-01-02T19:22:09.100Z,99673.08
2018-01-02T19:24:38.112Z,99675.31
2018-01-02T19:27:06.943Z,99675.50
2018-01-02T19:29:35.915Z,99684.05
2018-01-02T19:32:08.225Z,99679.88
2018-01-02T19:34:37.055Z,99685.42
2018-01-02T19:37:05.874Z,99689.69
2018-01-02T19:39:35.614Z,99691.83
2018-01-02T19:42:04.463Z,99698.27
2018-01-02T19:44:33.313Z,99697.16
2018-01-02T19:47:02.242Z,99699.81
2018-01-02T19:49:31.058Z,99704.94
2018-01-02T19:51:59.924Z,99699.14
2018-01-02T19:54:34.750Z,99698.83
2018-01-02T19:57:03.673Z,99699.76
2018-01-02T19:59:32.477Z,99703.98
2018-01-02T20:02:02.318Z,99702.77
2018-01-02T20:04:31.157Z,99711.19
2018-01-02T20:07:00.033Z,99709.39
2018-01-02T20:09:34.594Z,99705.14
2018-01-02T20:12:03.503Z,99702.16
2018-01-02T20:14:32.330Z,99699.61
2018-01-02T20:17:02.009Z,99698.36
2018-01-02T20:19:30.829Z,99700.85
2018-01-02T20:21:59.703Z,99702.52
2018-01-02T20:24:29.385Z,99704.23
2018-01-02T20:26:58.300Z,99702.55
2018-01-02T20:29:30.433Z,99706.81
2018-01-02T20:31:59.261Z,99711.11
2018-01-02T20:34:28.097Z,99710.28
2018-01-02T20:36:57.698Z,99710.30
2018-01-02T20:39:30.015Z,99714.10
2018-01-02T20:41:58.897Z,99721.66
2018-01-02T20:51:21.562Z,99723.16
2018-01-02T20:53:50.424Z,99724.48
2018-01-02T20:56:19.281Z,99730.41
2018-01-02T20:59:02.995Z,99732.11
2018-01-02T21:01:31.814Z,99724.92
2018-01-02T21:04:00.691Z,99724.06
2018-01-02T21:06:29.589Z,99726.57
2018-01-02T21:08:59.473Z,99723.58
2018-01-02T21:11:28.478Z,99728.59
2018-01-02T21:13:57.327Z,99726.87
2018-01-02T21:16:26.172Z,99730.23
2018-01-02T21:18:55.118Z,99726.34
2018-01-02T21:21:23.961Z,99727.56
2018-01-02T21:23:52.789Z,99733.02
2018-01-02T21:26:21.678Z,99728.27
2018-01-02T21:28:50.533Z,99729.54
2018-01-02T21:31:19.371Z,99724.04
2018-01-02T21:33:48.175Z,99729.12
2018-01-02T21:36:17.968Z,99725.70
2018-01-02T21:38:46.867Z,99724.02
2018-01-02T21:41:15.667Z,99721.48
2018-01-02T21:43:44.513Z,99715.58
2018-01-02T21:46:17.370Z,99721.48
2018-01-02T21:48:46.225Z,99721.05
2018-01-02T21:51:15.081Z,99723.59
2018-01-02T21:53:44.165Z,99721.92
2018-01-02T21:56:13.011Z,99725.27
2018-01-02T21:58:41.844Z,99726.53
2018-01-02T22:01:10.638Z,99730.33
2018-01-02T22:03:47.512Z,99731.20
2018-01-02T22:06:16.423Z,99723.98
2018-01-02T22:08:45.253Z,99726.87
2018-01-02T22:11:16.638Z,99721.88
2018-01-02T22:13:49.423Z,99725.69
2018-01-02T22:16:18.296Z,99718.91
2018-01-02T22:18:47.118Z,99712.14
2018-01-02T22:21:15.947Z,99715.50
2018-01-02T22:23:46.514Z,99710.86
2018-01-02T22:26:15.351Z,99714.20
2018-01-02T22:28:44.169Z,99706.59
2018-01-02T22:31:14.732Z,99713.48
2018-01-02T22:33:43.580Z,99711.80
2018-01-02T22:36:12.413Z,99705.89
2018-01-02T22:41:16.026Z,99704.23
2018-01-02T22:43:44.856Z,99692.91
2018-01-02T22:46:13.696Z,99700.50
2018-01-02T22:48:42.501Z,99698.77
2018-01-02T22:51:11.466Z,99698.33
2018-01-02T22:53:40.296Z,99699.99
2018-01-02T22:56:09.097Z,99701.70
2018-01-02T22:58:37.930Z,99702.11
2018-01-02T23:03:40.750Z,99702.94
2018-01-02T23:06:09.573Z,99710.16
2018-01-02T23:08:38.399Z,99704.33
2018-01-02T23:11:08.174Z,99704.38
2018-01-02T23:13:37.037Z,99700.13
2018-01-02T23:16:05.843Z,99700.16
2018-01-02T23:18:40.958Z,99704.80
2018-01-02T23:21:09.761Z,99701.01
2018-01-02T23:23:38.594Z,99701.80
2018-01-02T23:26:08.352Z,99694.94
2018-01-02T23:28:37.166Z,99702.96
2018-01-02T23:31:06.051Z,99707.20
2018-01-02T23:33:35.681Z,99706.26
2018-01-02T23:36:04.649Z,99711.60
2018-01-02T23:38:33.528Z,99717.15
2018-01-02T23:41:02.346Z,99710.01
2018-01-02T23:43:31.172Z,99717.63
2018-01-02T23:46:00.093Z,99718.49
2018-01-02T23:48:29.796Z,99726.09
2018-01-02T23:50:58.576Z,99728.20
2018-01-02T23:53:27.366Z,99729.00
2018-01-02T23:56:04.826Z,99729.75
2018-01-02T23:58:33.658Z,99735.20
